Time;durP1;ratioP1;P1;durP2;ratioP2;P2;SDS_P1;SDS_P2;PMS_P1;PMS_P2;Temp;Humidity;BMP_temperature;BMP_pressure;BME280_temperature;BME280_humidity;BME280_pressure;Samples;Min_cycle;Max_cycle;Signal;HPM_P1;HPM_P2
2022/10/07 00:01:48;;;;;;;14.00;5.75;;;;;;;;;;5031058;28;20554;-76
2022/10/07 00:04:13;;;;;;;16.42;5.40;;;;;;;;;;5031350;28;20026;-76
2022/10/07 00:06:39;;;;;;;12.20;5.70;;;;;;;;;;5030651;28;20026;-75
2022/10/07 00:09:04;;;;;;;11.32;5.38;;;;;;;;;;5030630;28;20034;-78
2022/10/07 00:11:30;;;;;;;9.93;5.53;;;;;;;;;;5030532;28;20060;-76
2022/10/07 00:13:59;;;;;;;14.43;5.55;;;;;;;;;;5029892;28;20033;-76
2022/10/07 00:16:33;;;;;;;10.50;5.70;;;;;;;;;;5029846;28;20034;-75
2022/10/07 00:19:01;;;;;;;10.85;5.68;;;;;;;;;;5030293;28;20708;-76
2022/10/07 00:21:28;;;;;;;10.15;6.07;;;;;;;;;;5030520;28;20049;-76
2022/10/07 00:23:53;;;;;;;11.18;5.72;;;;;;;;;;5012803;28;20025;-76
2022/10/07 00:26:22;;;;;;;10.00;5.47;;;;;;;;;;5030375;28;20059;-75
2022/10/07 00:28:47;;;;;;;14.10;6.32;;;;;;;;;;5030222;28;20029;-76
2022/10/07 00:31:17;;;;;;;13.18;5.43;;;;;;;;;;5012606;28;20028;-76
2022/10/07 00:33:45;;;;;;;9.45;5.28;;;;;;;;;;5030495;28;20030;-78
2022/10/07 00:36:14;;;;;;;12.13;5.75;;;;;;;;;;5030441;28;20017;-75
2022/10/07 00:38:40;;;;;;;11.77;6.28;;;;;;;;;;5030297;28;20029;-75
2022/10/07 00:41:07;;;;;;;12.50;5.93;;;;;;;;;;5030074;28;20041;-75
2022/10/07 00:43:33;;;;;;;9.60;5.78;;;;;;;;;;5030202;28;20018;-75
2022/10/07 00:46:32;;;;;;;12.75;5.90;;;;;;;;;;5030404;28;20528;-78
2022/10/07 00:49:01;;;;;;;10.25;5.88;;;;;;;;;;5012536;28;20029;-77
2022/10/07 00:51:27;;;;;;;14.52;5.80;;;;;;;;;;5030273;28;20527;-77
2022/10/07 00:53:55;;;;;;;12.25;6.22;;;;;;;;;;5030154;28;20116;-77
2022/10/07 00:56:24;;;;;;;14.63;5.90;;;;;;;;;;5030288;28;20030;-77
2022/10/07 00:58:50;;;;;;;11.65;5.63;;;;;;;;;;5029816;28;20116;-78
2022/10/07 01:01:19;;;;;;;12.38;5.68;;;;;;;;;;5029966;28;20030;-77
2022/10/07 01:03:46;;;;;;;13.18;5.90;;;;;;;;;;5029791;28;20025;-77
2022/10/07 01:06:12;;;;;;;14.63;5.68;;;;;;;;;;5030103;28;20029;-78
2022/10/07 01:08:38;;;;;;;12.00;5.60;;;;;;;;;;5030049;28;20064;-78
2022/10/07 01:11:18;;;;;;;13.30;5.68;;;;;;;;;;5029920;28;20380;-78
2022/10/07 01:13:55;;;;;;;11.60;5.40;;;;;;;;;;5029914;28;20021;-78
2022/10/07 01:17:08;;;;;;;10.48;5.00;;;;;;;;;;5029802;28;20034;-78
2022/10/07 01:20:11;;;;;;;11.93;5.28;;;;;;;;;;5012115;28;20034;-75
2022/10/07 01:23:15;;;;;;;11.20;5.90;;;;;;;;;;5029714;28;20531;-75
2022/10/07 01:25:46;;;;;;;11.05;5.50;;;;;;;;;;4998750;28;20046;-78
2022/10/07 01:28:17;;;;;;;9.45;5.45;;;;;;;;;;5029715;28;20036;-78
2022/10/07 01:30:48;;;;;;;11.23;5.70;;;;;;;;;;5029508;28;20030;-78
2022/10/07 01:33:18;;;;;;;8.13;5.22;;;;;;;;;;5029667;28;20037;-78
2022/10/07 01:35:47;;;;;;;9.82;5.68;;;;;;;;;;5029841;28;20032;-78
2022/10/07 01:38:17;;;;;;;12.82;5.68;;;;;;;;;;5030121;28;20083;-76
2022/10/07 01:40:50;;;;;;;11.73;5.60;;;;;;;;;;5033454;28;20056;-80
2022/10/07 01:43:19;;;;;;;11.20;5.47;;;;;;;;;;5033553;28;20083;-79
2022/10/07 01:45:46;;;;;;;9.27;5.25;;;;;;;;;;5033859;28;20030;-78
2022/10/07 01:48:12;;;;;;;9.32;5.30;;;;;;;;;;5033298;28;20044;-77
2022/10/07 01:50:38;;;;;;;13.90;5.60;;;;;;;;;;5033305;28;20025;-77
2022/10/07 01:53:36;;;;;;;7.50;5.22;;;;;;;;;;5033234;28;20095;-77
2022/10/07 01:56:29;;;;;;;10.32;5.18;;;;;;;;;;5033495;28;20030;-78
2022/10/07 01:59:28;;;;;;;9.50;5.38;;;;;;;;;;5033207;28;20508;-78
2022/10/07 02:02:26;;;;;;;11.75;5.85;;;;;;;;;;5033343;28;20538;-75
2022/10/07 02:05:12;;;;;;;8.63;5.57;;;;;;;;;;5015716;28;20444;-77
2022/10/07 02:07:52;;;;;;;11.73;5.70;;;;;;;;;;5033260;28;20087;-79
2022/10/07 02:10:25;;;;;;;8.75;5.32;;;;;;;;;;5032945;28;20026;-79
2022/10/07 02:13:07;;;;;;;11.52;5.60;;;;;;;;;;5032962;28;20025;-78
2022/10/07 02:15:42;;;;;;;11.10;5.80;;;;;;;;;;5033243;28;20026;-76
2022/10/07 02:18:13;;;;;;;8.55;5.53;;;;;;;;;;5032778;28;20056;-78
2022/10/07 02:20:42;;;;;;;9.43;5.00;;;;;;;;;;5032989;28;20028;-78
2022/10/07 02:23:09;;;;;;;11.65;5.60;;;;;;;;;;5032717;28;20059;-78
2022/10/07 02:25:39;;;;;;;11.38;5.22;;;;;;;;;;5032794;28;20021;-77
2022/10/07 02:28:06;;;;;;;10.43;5.35;;;;;;;;;;5014727;28;20021;-78
2022/10/07 02:30:34;;;;;;;11.50;5.45;;;;;;;;;;5032706;28;20141;-78
2022/10/07 02:33:04;;;;;;;12.02;5.40;;;;;;;;;;5032528;28;20112;-78
2022/10/07 02:35:53;;;;;;;14.87;5.33;;;;;;;;;;5033121;28;20060;-79
2022/10/07 02:38:21;;;;;;;10.70;5.82;;;;;;;;;;5032610;28;20084;-79
2022/10/07 02:41:30;;;;;;;9.48;5.13;;;;;;;;;;5032619;28;20124;-79
2022/10/07 02:44:34;;;;;;;10.05;5.30;;;;;;;;;;5032336;28;20378;-76
2022/10/07 02:47:18;;;;;;;10.05;5.45;;;;;;;;;;5029265;28;20068;-75
2022/10/07 02:49:49;;;;;;;11.60;5.45;;;;;;;;;;5031130;28;20033;-77
2022/10/07 02:52:17;;;;;;;10.13;5.55;;;;;;;;;;5032561;28;20030;-79
2022/10/07 02:54:47;;;;;;;10.88;5.60;;;;;;;;;;5032345;28;20040;-76
2022/10/07 02:57:17;;;;;;;10.13;5.30;;;;;;;;;;5032419;28;20034;-78
2022/10/07 02:59:43;;;;;;;9.82;5.32;;;;;;;;;;5031945;28;20033;-78
2022/10/07 03:02:14;;;;;;;9.38;5.28;;;;;;;;;;5032326;28;20112;-79
2022/10/07 03:04:41;;;;;;;9.18;5.28;;;;;;;;;;5032173;28;20056;-79
2022/10/07 03:07:06;;;;;;;12.00;5.28;;;;;;;;;;5032393;28;20076;-79
2022/10/07 03:09:32;;;;;;;12.60;5.55;;;;;;;;;;5032062;28;20057;-77
2022/10/07 03:11:58;;;;;;;13.35;5.65;;;;;;;;;;5014394;28;20083;-77
2022/10/07 03:14:23;;;;;;;8.88;5.43;;;;;;;;;;5031914;28;20025;-79
2022/10/07 03:16:50;;;;;;;13.30;5.50;;;;;;;;;;5032093;28;20022;-79
2022/10/07 03:19:17;;;;;;;8.57;5.15;;;;;;;;;;5031524;28;20116;-77
2022/10/07 03:21:42;;;;;;;10.38;5.45;;;;;;;;;;5031563;28;20396;-78
2022/10/07 03:24:08;;;;;;;12.10;5.20;;;;;;;;;;5031673;28;20124;-79
2022/10/07 03:26:34;;;;;;;9.77;5.43;;;;;;;;;;5031980;28;20045;-79
2022/10/07 03:29:00;;;;;;;8.25;5.00;;;;;;;;;;5031644;28;20049;-78
2022/10/07 03:31:26;;;;;;;10.13;5.35;;;;;;;;;;5031361;28;20056;-79
2022/10/07 03:33:56;;;;;;;8.27;5.13;;;;;;;;;;5031533;28;20029;-79
2022/10/07 03:36:22;;;;;;;8.48;4.93;;;;;;;;;;5031598;28;20053;-79
2022/10/07 03:38:48;;;;;;;10.07;5.38;;;;;;;;;;5031268;28;20029;-79
2022/10/07 03:41:15;;;;;;;9.82;5.10;;;;;;;;;;5031138;28;20046;-79
2022/10/07 03:43:40;;;;;;;11.68;5.95;;;;;;;;;;5031625;28;20025;-79
2022/10/07 03:46:05;;;;;;;9.43;5.22;;;;;;;;;;5031383;28;20773;-80
2022/10/07 03:48:31;;;;;;;9.43;5.07;;;;;;;;;;5013462;28;20032;-79
2022/10/07 03:50:56;;;;;;;8.60;5.15;;;;;;;;;;5031163;28;20021;-79
2022/10/07 03:53:27;;;;;;;7.50;5.05;;;;;;;;;;5013688;28;20030;-80
2022/10/07 03:55:53;;;;;;;10.60;5.53;;;;;;;;;;5031175;28;20032;-79
2022/10/07 03:58:19;;;;;;;12.60;5.43;;;;;;;;;;5031084;28;20108;-80
2022/10/07 04:00:44;;;;;;;10.18;5.13;;;;;;;;;;5030604;28;20021;-80
2022/10/07 04:03:10;;;;;;;10.50;5.65;;;;;;;;;;5030993;28;20548;-78
2022/10/07 04:05:35;;;;;;;9.80;5.57;;;;;;;;;;5030957;28;20489;-76
2022/10/07 04:08:03;;;;;;;11.23;5.25;;;;;;;;;;5031225;28;20030;-77
2022/10/07 04:10:29;;;;;;;11.13;5.70;;;;;;;;;;5030497;28;20025;-77
2022/10/07 04:12:55;;;;;;;8.90;5.63;;;;;;;;;;5030974;28;20037;-79
2022/10/07 04:15:21;;;;;;;9.20;5.30;;;;;;;;;;5030617;28;20022;-78
2022/10/07 04:17:47;;;;;;;9.80;5.18;;;;;;;;;;5030748;28;20037;-78
2022/10/07 04:20:15;;;;;;;10.75;6.00;;;;;;;;;;5030512;28;20481;-78
2022/10/07 04:22:40;;;;;;;9.63;5.78;;;;;;;;;;5030765;28;20040;-78
2022/10/07 04:27:52;;;;;;;9.25;5.30;;;;;;;;;;5030711;28;20048;-79
2022/10/07 04:30:19;;;;;;;9.80;5.55;;;;;;;;;;5030117;28;20032;-77
2022/10/07 04:32:44;;;;;;;9.35;5.63;;;;;;;;;;5030493;28;20374;-78
2022/10/07 04:35:10;;;;;;;11.70;5.35;;;;;;;;;;5030301;28;20504;-78
2022/10/07 04:37:35;;;;;;;11.52;5.55;;;;;;;;;;5030554;28;20044;-77
2022/10/07 04:40:00;;;;;;;11.77;5.82;;;;;;;;;;5030361;28;20044;-78
2022/10/07 04:45:10;;;;;;;9.60;5.30;;;;;;;;;;5030319;28;20495;-79
2022/10/07 04:47:35;;;;;;;15.80;5.82;;;;;;;;;;5030184;28;20022;-78
2022/10/07 04:50:01;;;;;;;10.70;5.93;;;;;;;;;;5030134;28;20036;-78
2022/10/07 04:52:27;;;;;;;10.30;5.50;;;;;;;;;;5030183;28;20104;-78
2022/10/07 04:54:53;;;;;;;10.02;5.28;;;;;;;;;;5030123;28;20113;-78
2022/10/07 04:57:18;;;;;;;14.68;5.97;;;;;;;;;;5030494;28;20026;-78
2022/10/07 04:59:44;;;;;;;9.73;5.50;;;;;;;;;;5030033;28;20532;-78
2022/10/07 05:02:09;;;;;;;10.77;5.63;;;;;;;;;;5030006;28;20033;-77
2022/10/07 05:04:35;;;;;;;10.18;5.60;;;;;;;;;;5029835;28;20551;-77
2022/10/07 05:07:00;;;;;;;11.07;5.72;;;;;;;;;;5030295;28;20033;-77
2022/10/07 05:09:26;;;;;;;9.35;5.32;;;;;;;;;;5030050;28;20028;-78
2022/10/07 05:11:54;;;;;;;13.63;5.80;;;;;;;;;;5029820;28;20445;-77
2022/10/07 05:14:20;;;;;;;9.95;5.70;;;;;;;;;;5029546;28;20021;-78
2022/10/07 05:16:49;;;;;;;10.05;5.45;;;;;;;;;;5029555;28;20438;-77
2022/10/07 05:19:15;;;;;;;11.60;6.00;;;;;;;;;;5030003;28;20026;-77
2022/10/07 05:21:41;;;;;;;9.93;5.97;;;;;;;;;;5029554;28;20079;-77
2022/10/07 05:24:06;;;;;;;9.15;5.82;;;;;;;;;;5029909;28;20120;-78
2022/10/07 05:26:32;;;;;;;15.40;6.40;;;;;;;;;;5029982;28;20026;-77
2022/10/07 05:28:57;;;;;;;13.25;6.35;;;;;;;;;;5029988;28;20021;-78
2022/10/07 05:31:24;;;;;;;13.57;5.97;;;;;;;;;;5029364;28;20045;-77
2022/10/07 05:33:50;;;;;;;11.00;5.50;;;;;;;;;;5030043;28;20473;-78
2022/10/07 05:36:15;;;;;;;9.05;5.57;;;;;;;;;;5029531;28;20096;-77
2022/10/07 05:38:40;;;;;;;11.93;5.55;;;;;;;;;;5011893;28;20128;-78
2022/10/07 05:41:08;;;;;;;13.15;6.25;;;;;;;;;;5000239;28;20050;-78
2022/10/07 05:43:36;;;;;;;10.48;6.00;;;;;;;;;;4989713;28;20038;-77
2022/10/07 05:46:14;;;;;;;10.73;6.25;;;;;;;;;;4989503;28;20418;-78
2022/10/07 05:48:39;;;;;;;10.43;5.65;;;;;;;;;;4989757;28;20026;-78
2022/10/07 05:51:07;;;;;;;11.55;6.13;;;;;;;;;;4989595;28;20029;-77
2022/10/07 05:53:33;;;;;;;12.98;6.60;;;;;;;;;;4990755;28;20132;-77
2022/10/07 05:56:04;;;;;;;11.98;5.90;;;;;;;;;;4989974;28;20038;-77
2022/10/07 05:58:29;;;;;;;13.18;6.15;;;;;;;;;;4988908;28;20030;-77
2022/10/07 06:00:58;;;;;;;9.63;6.18;;;;;;;;;;4991329;28;20532;-76
2022/10/07 06:03:25;;;;;;;11.27;6.10;;;;;;;;;;4990240;28;20430;-78
2022/10/07 06:05:52;;;;;;;12.30;6.40;;;;;;;;;;4990334;28;20050;-78
2022/10/07 06:08:18;;;;;;;16.73;6.63;;;;;;;;;;4990419;28;20038;-77
2022/10/07 06:13:32;;;;;;;14.38;6.50;;;;;;;;;;4990143;28;20036;-86
2022/10/07 06:16:02;;;;;;;12.60;6.05;;;;;;;;;;4988554;28;20026;-80
2022/10/07 06:18:28;;;;;;;9.65;5.55;;;;;;;;;;4990140;28;20050;-85
2022/10/07 06:20:55;;;;;;;9.90;5.32;;;;;;;;;;4992876;28;20482;-76
2022/10/07 06:23:20;;;;;;;6.97;5.05;;;;;;;;;;4990144;28;20022;-74
2022/10/07 06:26:01;;;;;;;10.35;6.10;;;;;;;;;;4992869;28;20481;-73
2022/10/07 06:28:34;;;;;;;12.07;6.32;;;;;;;;;;4993689;28;20030;-76
2022/10/07 06:31:04;;;;;;;11.35;6.38;;;;;;;;;;4993038;28;20682;-74
2022/10/07 06:33:29;;;;;;;9.98;5.65;;;;;;;;;;4993313;28;20055;-78
2022/10/07 06:35:55;;;;;;;13.40;6.13;;;;;;;;;;4991810;28;20039;-73
2022/10/07 06:38:20;;;;;;;9.63;5.65;;;;;;;;;;4993467;28;20121;-75
2022/10/07 06:40:57;;;;;;;16.48;5.53;;;;;;;;;;5003196;28;20047;-82
2022/10/07 06:43:25;;;;;;;11.65;5.80;;;;;;;;;;5032717;28;20074;-74
2022/10/07 06:45:50;;;;;;;10.43;6.22;;;;;;;;;;5032435;28;20033;-75
2022/10/07 06:48:15;;;;;;;10.05;5.57;;;;;;;;;;5014553;28;20033;-75
2022/10/07 06:50:49;;;;;;;9.77;5.90;;;;;;;;;;5032523;28;20029;-78
2022/10/07 06:53:15;;;;;;;12.15;6.13;;;;;;;;;;5032101;28;20481;-83
2022/10/07 06:55:40;;;;;;;12.02;5.90;;;;;;;;;;5032435;28;20024;-77
2022/10/07 06:58:05;;;;;;;10.57;5.93;;;;;;;;;;5033216;28;20033;-76
2022/10/07 07:00:31;;;;;;;11.13;6.25;;;;;;;;;;5037163;28;20041;-78
2022/10/07 07:03:00;;;;;;;11.95;6.40;;;;;;;;;;5036502;28;20021;-78
2022/10/07 07:05:36;;;;;;;14.23;7.15;;;;;;;;;;5032011;28;20401;-79
2022/10/07 07:08:02;;;;;;;13.63;7.50;;;;;;;;;;5031729;28;20396;-78
2022/10/07 07:10:27;;;;;;;13.98;7.20;;;;;;;;;;5032039;28;20112;-78
2022/10/07 07:12:53;;;;;;;17.15;8.02;;;;;;;;;;5031729;28;20030;-78
2022/10/07 07:15:20;;;;;;;14.85;7.80;;;;;;;;;;5032188;28;20021;-78
2022/10/07 07:17:45;;;;;;;16.90;7.85;;;;;;;;;;5031540;28;20485;-78
2022/10/07 07:20:12;;;;;;;15.77;7.47;;;;;;;;;;5031844;28;20048;-77
2022/10/07 07:22:37;;;;;;;14.10;7.65;;;;;;;;;;5031496;28;20080;-77
2022/10/07 07:25:03;;;;;;;18.83;7.93;;;;;;;;;;5031787;28;20679;-77
2022/10/07 07:27:29;;;;;;;15.05;8.05;;;;;;;;;;5031542;28;20049;-78
2022/10/07 07:29:54;;;;;;;14.05;7.63;;;;;;;;;;5031772;28;20477;-79
2022/10/07 07:32:19;;;;;;;14.32;7.10;;;;;;;;;;5031229;28;20018;-78
2022/10/07 07:34:45;;;;;;;14.55;6.57;;;;;;;;;;5031948;28;20378;-79
2022/10/07 07:37:11;;;;;;;10.40;6.45;;;;;;;;;;5013067;28;20040;-79
2022/10/07 07:39:36;;;;;;;11.65;6.28;;;;;;;;;;5031569;28;20029;-77
2022/10/07 07:42:02;;;;;;;12.30;6.28;;;;;;;;;;5030935;28;20046;-78
2022/10/07 07:44:29;;;;;;;9.02;5.90;;;;;;;;;;5031369;28;20490;-76
2022/10/07 07:46:54;;;;;;;10.10;6.20;;;;;;;;;;5013270;28;20068;-78
2022/10/07 07:49:21;;;;;;;12.43;6.25;;;;;;;;;;5031294;28;20501;-77
2022/10/07 07:51:47;;;;;;;9.77;5.57;;;;;;;;;;5030976;28;20115;-77
2022/10/07 07:54:14;;;;;;;11.27;5.65;;;;;;;;;;5041898;28;20071;-78
2022/10/07 07:56:41;;;;;;;10.90;5.80;;;;;;;;;;5051093;28;20045;-77
2022/10/07 07:59:07;;;;;;;17.88;6.47;;;;;;;;;;5050981;28;20086;-78
2022/10/07 08:01:34;;;;;;;17.52;6.70;;;;;;;;;;5050351;28;20071;-78
2022/10/07 08:04:00;;;;;;;19.27;8.85;;;;;;;;;;5050905;28;20483;-78
2022/10/07 08:06:26;;;;;;;15.02;7.78;;;;;;;;;;5050730;28;20393;-78
2022/10/07 08:08:56;;;;;;;16.52;7.70;;;;;;;;;;5051231;28;20029;-77
2022/10/07 08:11:22;;;;;;;12.35;6.75;;;;;;;;;;5033170;28;20027;-79
2022/10/07 08:13:47;;;;;;;12.30;6.18;;;;;;;;;;5050653;28;20116;-78
2022/10/07 08:16:18;;;;;;;14.98;6.40;;;;;;;;;;5050757;28;20017;-78
2022/10/07 08:18:46;;;;;;;12.95;6.38;;;;;;;;;;5050247;28;20033;-78
2022/10/07 08:21:12;;;;;;;13.57;6.07;;;;;;;;;;5050630;28;20025;-78
2022/10/07 08:23:38;;;;;;;13.05;6.50;;;;;;;;;;5050409;28;20025;-78
2022/10/07 08:26:06;;;;;;;13.25;5.80;;;;;;;;;;5050545;28;20029;-78
2022/10/07 08:28:32;;;;;;;13.60;6.63;;;;;;;;;;5050551;28;20056;-79
2022/10/07 08:31:06;;;;;;;13.73;6.57;;;;;;;;;;5050439;28;20061;-79
2022/10/07 08:33:35;;;;;;;16.92;7.30;;;;;;;;;;5031733;28;20040;-79
2022/10/07 08:36:03;;;;;;;15.75;6.60;;;;;;;;;;5050483;28;20036;-79
2022/10/07 08:38:33;;;;;;;10.82;6.68;;;;;;;;;;5050132;28;20539;-78
2022/10/07 08:41:08;;;;;;;;;;;;;;;;;;5053032;28;20048;-78
2022/10/07 08:43:36;;;;;;;11.77;5.88;;;;;;;;;;5050209;28;20376;-78
2022/10/07 08:46:03;;;;;;;14.43;6.28;;;;;;;;;;5050250;28;20032;-79
2022/10/07 08:48:37;;;;;;;17.35;5.82;;;;;;;;;;5050805;28;20029;-87
2022/10/07 08:51:19;;;;;;;12.90;6.38;;;;;;;;;;5050361;28;20037;-83
2022/10/07 08:53:48;;;;;;;12.50;6.38;;;;;;;;;;5049818;28;20021;-77
2022/10/07 08:56:18;;;;;;;11.43;5.97;;;;;;;;;;5050434;28;20527;-79
2022/10/07 08:59:11;;;;;;;10.55;5.32;;;;;;;;;;5039370;28;20568;-78
2022/10/07 09:01:55;;;;;;;15.82;5.00;;;;;;;;;;5044315;28;20401;-78
2022/10/07 09:04:26;;;;;;;10.27;4.78;;;;;;;;;;5040633;28;20100;-80
2022/10/07 09:07:02;;;;;;;9.23;4.45;;;;;;;;;;5056801;28;20033;-77
2022/10/07 09:09:35;;;;;;;10.45;4.10;;;;;;;;;;5062165;28;20040;-78
2022/10/07 09:12:04;;;;;;;11.00;4.07;;;;;;;;;;5061541;28;20071;-79
2022/10/07 09:14:38;;;;;;;10.68;3.65;;;;;;;;;;5053819;28;20017;-86
2022/10/07 09:17:19;;;;;;;8.13;2.88;;;;;;;;;;5035799;28;20044;-83
2022/10/07 09:19:53;;;;;;;9.82;3.13;;;;;;;;;;5034435;28;20036;-78
2022/10/07 09:22:23;;;;;;;9.48;3.28;;;;;;;;;;5031935;28;20365;-79
2022/10/07 09:24:56;;;;;;;9.48;3.08;;;;;;;;;;5033894;28;20116;-82
2022/10/07 09:27:21;;;;;;;5.50;2.80;;;;;;;;;;5029897;28;20517;-81
2022/10/07 09:29:50;;;;;;;6.80;2.92;;;;;;;;;;5029725;28;20056;-76
2022/10/07 09:32:17;;;;;;;7.80;2.88;;;;;;;;;;5024389;28;20107;-77
2022/10/07 09:34:44;;;;;;;7.35;2.90;;;;;;;;;;5050233;28;20020;-76
2022/10/07 09:37:10;;;;;;;5.20;2.83;;;;;;;;;;5049798;28;20053;-81
2022/10/07 09:39:36;;;;;;;5.57;2.72;;;;;;;;;;5032561;28;20075;-76
2022/10/07 09:42:03;;;;;;;5.90;2.80;;;;;;;;;;5048584;28;20037;-84
2022/10/07 09:44:29;;;;;;;7.55;2.75;;;;;;;;;;5047697;28;20040;-80
2022/10/07 09:46:58;;;;;;;6.03;2.70;;;;;;;;;;5049416;28;20369;-83
2022/10/07 09:49:27;;;;;;;6.50;2.60;;;;;;;;;;5049229;28;20100;-80
2022/10/07 09:52:15;;;;;;;4.20;2.47;;;;;;;;;;5049671;28;20036;-81
2022/10/07 09:54:42;;;;;;;5.82;2.70;;;;;;;;;;5052330;28;20406;-77
2022/10/07 09:57:24;;;;;;;8.25;2.60;;;;;;;;;;5055918;28;20040;-86
2022/10/07 09:59:49;;;;;;;7.10;2.60;;;;;;;;;;5059501;28;20193;-84
2022/10/07 10:02:24;;;;;;;7.20;2.70;;;;;;;;;;5058259;28;20036;-81
2022/10/07 10:04:56;;;;;;;7.47;2.50;;;;;;;;;;5058576;28;20029;-83
2022/10/07 10:07:35;;;;;;;4.88;2.40;;;;;;;;;;5058054;28;20075;-84
2022/10/07 10:10:23;;;;;;;7.97;2.60;;;;;;;;;;5052701;28;20365;-77
2022/10/07 10:12:51;;;;;;;5.88;2.60;;;;;;;;;;5059970;28;20544;-79
2022/10/07 10:15:35;;;;;;;6.93;2.60;;;;;;;;;;5061134;28;20028;-82
2022/10/07 10:18:02;;;;;;;6.80;2.75;;;;;;;;;;5038117;28;20086;-80
2022/10/07 10:20:37;;;;;;;7.90;2.65;;;;;;;;;;5056919;28;20017;-75
2022/10/07 10:23:22;;;;;;;9.90;2.88;;;;;;;;;;5055153;28;20032;-74
2022/10/07 10:29:36;;;;;;;7.93;2.80;;;;;;;;;;5064177;28;20083;-75
2022/10/07 10:32:29;;;;;;;5.72;2.50;;;;;;;;;;5016990;28;20041;-75
2022/10/07 10:35:06;;;;;;;7.13;2.45;;;;;;;;;;5063045;28;20037;-75
2022/10/07 10:37:44;;;;;;;5.15;2.38;;;;;;;;;;5062569;28;20029;-74
2022/10/07 10:40:34;;;;;;;5.03;2.33;;;;;;;;;;5063932;28;20028;-74
2022/10/07 10:43:19;;;;;;;9.25;2.42;;;;;;;;;;5060339;28;20358;-74
2022/10/07 10:45:50;;;;;;;5.85;2.28;;;;;;;;;;5064078;28;20205;-75
2022/10/07 10:48:54;;;;;;;11.65;2.22;;;;;;;;;;5059932;28;20083;-74
2022/10/07 10:51:52;;;;;;;9.35;2.40;;;;;;;;;;5062412;28;20139;-75
2022/10/07 10:54:37;;;;;;;7.07;2.10;;;;;;;;;;5063198;28;20274;-75
2022/10/07 10:57:17;;;;;;;5.35;2.35;;;;;;;;;;5059650;28;20032;-75
2022/10/07 10:59:54;;;;;;;7.22;2.10;;;;;;;;;;5059816;28;20029;-74
2022/10/07 11:02:41;;;;;;;6.88;2.20;;;;;;;;;;5062956;28;20021;-74
2022/10/07 11:05:22;;;;;;;7.00;2.30;;;;;;;;;;5059768;28;20035;-75
2022/10/07 11:07:47;;;;;;;;;;;;;;;;;;5062371;28;20032;-75
2022/10/07 11:10:33;;;;;;;5.43;1.80;;;;;;;;;;5062731;28;19915;-76
2022/10/07 11:13:17;;;;;;;6.15;1.83;;;;;;;;;;5060196;28;20302;-74
2022/10/07 11:15:52;;;;;;;5.43;2.13;;;;;;;;;;5059905;28;20092;-75
2022/10/07 11:18:31;;;;;;;8.27;2.13;;;;;;;;;;5063100;28;20028;-75
2022/10/07 11:20:58;;;;;;;7.95;2.40;;;;;;;;;;5061038;28;20091;-75
2022/10/07 11:23:50;;;;;;;7.07;2.10;;;;;;;;;;5044781;28;20044;-75
2022/10/07 11:26:21;;;;;;;7.90;2.08;;;;;;;;;;5060758;28;20063;-75
2022/10/07 11:28:49;;;;;;;8.52;2.40;;;;;;;;;;5062826;28;20063;-75
2022/10/07 11:31:33;;;;;;;5.15;2.00;;;;;;;;;;5044991;28;20091;-74
2022/10/07 11:34:12;;;;;;;7.03;1.98;;;;;;;;;;5061115;28;20305;-73
2022/10/07 11:36:41;;;;;;;4.25;1.90;;;;;;;;;;5062040;28;20037;-73
2022/10/07 11:39:07;;;;;;;4.82;1.88;;;;;;;;;;5062178;28;20036;-73
2022/10/07 11:41:44;;;;;;;5.22;1.98;;;;;;;;;;5062416;28;20045;-73
2022/10/07 11:44:20;;;;;;;7.13;1.98;;;;;;;;;;5061801;28;20037;-74
2022/10/07 11:46:47;;;;;;;6.28;1.90;;;;;;;;;;5060988;28;20043;-73
2022/10/07 11:49:25;;;;;;;5.85;1.80;;;;;;;;;;5062547;28;20039;-73
2022/10/07 11:52:15;;;;;;;3.72;1.80;;;;;;;;;;5059956;28;20096;-80
2022/10/07 11:54:56;;;;;;;7.05;2.15;;;;;;;;;;5062389;28;20033;-75
2022/10/07 11:57:25;;;;;;;5.68;1.90;;;;;;;;;;5062601;28;20316;-77
2022/10/07 12:00:07;;;;;;;7.05;2.22;;;;;;;;;;5061216;28;20393;-75
2022/10/07 12:02:38;;;;;;;5.00;1.80;;;;;;;;;;5060781;28;20212;-76
2022/10/07 12:05:07;;;;;;;5.90;2.03;;;;;;;;;;5055532;28;20036;-76
2022/10/07 12:07:41;;;;;;;4.30;1.85;;;;;;;;;;5054937;28;20174;-75
2022/10/07 12:10:23;;;;;;;6.53;1.73;;;;;;;;;;5053742;28;20024;-80
2022/10/07 12:12:55;;;;;;;7.75;2.33;;;;;;;;;;5047251;28;20044;-81
2022/10/07 12:15:31;;;;;;;5.32;1.85;;;;;;;;;;5054025;28;20060;-80
2022/10/07 12:18:02;;;;;;;5.15;1.83;;;;;;;;;;5057504;28;20194;-79
2022/10/07 12:20:45;;;;;;;6.07;2.30;;;;;;;;;;5061940;28;20029;-81
2022/10/07 12:23:19;;;;;;;6.60;1.88;;;;;;;;;;5061275;28;20358;-82
2022/10/07 12:25:53;;;;;;;5.93;1.90;;;;;;;;;;5057984;28;20032;-80
2022/10/07 12:28:35;;;;;;;8.30;2.00;;;;;;;;;;5062018;28;20028;-79
2022/10/07 12:31:05;;;;;;;8.32;2.03;;;;;;;;;;5057874;28;20033;-82
2022/10/07 12:33:42;;;;;;;7.38;2.03;;;;;;;;;;5053983;28;20032;-74
2022/10/07 12:36:26;;;;;;;8.10;2.00;;;;;;;;;;5061088;28;20033;-76
2022/10/07 12:38:55;;;;;;;6.38;2.15;;;;;;;;;;5057712;28;20043;-75
2022/10/07 12:41:37;;;;;;;5.38;1.80;;;;;;;;;;5052768;28;20064;-75
2022/10/07 12:44:46;;;;;;;6.43;2.05;;;;;;;;;;5052816;28;20024;-75
2022/10/07 12:47:11;;;;;;;8.52;2.28;;;;;;;;;;5056547;28;20036;-74
2022/10/07 12:49:49;;;;;;;6.15;1.95;;;;;;;;;;5054957;28;20209;-75
2022/10/07 12:52:33;;;;;;;9.05;2.17;;;;;;;;;;5055443;28;20032;-74
2022/10/07 12:55:07;;;;;;;7.82;1.58;;;;;;;;;;5057345;28;20035;-74
2022/10/07 12:57:38;;;;;;;6.65;1.75;;;;;;;;;;5060213;28;20036;-77
2022/10/07 13:00:17;;;;;;;10.15;1.90;;;;;;;;;;5060231;28;20025;-74
2022/10/07 13:03:07;;;;;;;7.13;1.88;;;;;;;;;;5053447;28;20033;-76
2022/10/07 13:05:38;;;;;;;9.00;1.90;;;;;;;;;;5050241;28;20036;-75
2022/10/07 13:08:25;;;;;;;6.65;2.13;;;;;;;;;;5032182;28;20036;-74
2022/10/07 13:11:12;;;;;;;6.00;1.83;;;;;;;;;;5050300;28;20033;-77
2022/10/07 13:13:58;;;;;;;5.10;1.90;;;;;;;;;;5055586;28;20021;-75
2022/10/07 13:16:34;;;;;;;8.57;2.00;;;;;;;;;;5055878;28;20301;-77
2022/10/07 13:19:13;;;;;;;8.32;2.08;;;;;;;;;;5049815;28;20055;-76
2022/10/07 13:21:44;;;;;;;7.78;1.90;;;;;;;;;;5056077;28;20037;-75
2022/10/07 13:24:19;;;;;;;9.23;2.42;;;;;;;;;;5054693;28;20029;-76
2022/10/07 13:26:45;;;;;;;6.47;1.90;;;;;;;;;;5055624;28;20055;-76
2022/10/07 13:29:32;;;;;;;7.45;1.92;;;;;;;;;;5058431;28;20347;-76
2022/10/07 13:32:11;;;;;;;8.95;1.83;;;;;;;;;;5058098;28;20029;-77
2022/10/07 13:34:37;;;;;;;6.20;2.03;;;;;;;;;;5055608;28;20033;-77
2022/10/07 13:37:34;;;;;;;8.75;2.15;;;;;;;;;;5059634;28;20047;-74
2022/10/07 13:40:20;;;;;;;8.60;2.30;;;;;;;;;;5053905;28;20037;-77
2022/10/07 13:42:52;;;;;;;8.02;2.30;;;;;;;;;;5063351;28;20033;-76
2022/10/07 13:45:18;;;;;;;6.53;1.90;;;;;;;;;;5058030;28;20032;-75
2022/10/07 13:47:45;;;;;;;7.25;1.83;;;;;;;;;;5059153;28;20021;-75
2022/10/07 13:50:18;;;;;;;11.50;2.55;;;;;;;;;;5060815;28;20095;-76
2022/10/07 13:52:46;;;;;;;5.70;1.90;;;;;;;;;;5060198;28;20048;-77
2022/10/07 13:55:29;;;;;;;6.43;1.80;;;;;;;;;;5055202;28;20090;-76
2022/10/07 13:57:56;;;;;;;10.65;2.00;;;;;;;;;;5063106;28;20044;-77
2022/10/07 14:00:26;;;;;;;8.10;2.15;;;;;;;;;;5054509;28;20043;-77
2022/10/07 14:02:52;;;;;;;10.55;2.10;;;;;;;;;;5053045;28;20060;-76
2022/10/07 14:05:24;;;;;;;10.38;2.10;;;;;;;;;;5055245;28;20025;-82
2022/10/07 14:07:58;;;;;;;7.53;2.00;;;;;;;;;;5053945;28;20055;-81
2022/10/07 14:10:27;;;;;;;7.07;2.00;;;;;;;;;;5040944;28;20021;-75
2022/10/07 14:12:58;;;;;;;7.68;2.00;;;;;;;;;;5051191;28;20349;-75
2022/10/07 14:15:29;;;;;;;6.32;2.03;;;;;;;;;;5045939;28;20033;-75
2022/10/07 14:17:57;;;;;;;;;;;;;;;;;;5056210;28;20126;-75
2022/10/07 14:20:22;;;;;;;11.75;2.20;;;;;;;;;;5061689;28;19931;-75
2022/10/07 14:23:04;;;;;;;5.78;1.95;;;;;;;;;;5062115;28;20092;-74
2022/10/07 14:25:52;;;;;;;9.05;2.20;;;;;;;;;;5063962;28;20092;-75
2022/10/07 14:28:21;;;;;;;8.38;2.00;;;;;;;;;;5050664;28;20325;-74
2022/10/07 14:37:09;;;;;;;6.78;2.05;;;;;;;;;;5060863;28;20032;-75
2022/10/07 14:39:42;;;;;;;9.23;2.20;;;;;;;;;;5045705;28;20025;-74
2022/10/07 14:42:14;;;;;;;10.07;2.30;;;;;;;;;;5063474;28;20044;-74
2022/10/07 14:44:42;;;;;;;8.80;2.25;;;;;;;;;;5063711;28;20029;-75
2022/10/07 14:47:11;;;;;;;9.57;2.00;;;;;;;;;;5051524;28;20092;-75
2022/10/07 14:49:37;;;;;;;7.38;1.80;;;;;;;;;;5059616;28;20033;-75
2022/10/07 14:52:05;;;;;;;6.20;1.90;;;;;;;;;;5057503;28;20031;-74
2022/10/07 14:54:33;;;;;;;7.93;2.40;;;;;;;;;;5060519;28;20213;-74
2022/10/07 14:56:58;;;;;;;7.30;2.10;;;;;;;;;;5044287;28;20032;-74
2022/10/07 14:59:24;;;;;;;5.43;1.80;;;;;;;;;;5042872;28;20092;-74
2022/10/07 15:01:49;;;;;;;8.18;2.10;;;;;;;;;;5061908;28;20336;-74
2022/10/07 15:04:14;;;;;;;5.40;2.03;;;;;;;;;;5061777;28;20024;-75
2022/10/07 15:06:40;;;;;;;7.05;1.90;;;;;;;;;;5061738;28;20029;-75
2022/10/07 15:09:06;;;;;;;5.28;1.98;;;;;;;;;;5061973;28;20320;-74
2022/10/07 15:11:31;;;;;;;8.00;1.95;;;;;;;;;;5061971;28;20043;-75
2022/10/07 15:13:57;;;;;;;5.82;1.90;;;;;;;;;;5059886;28;20017;-75
2022/10/07 15:16:25;;;;;;;7.55;2.05;;;;;;;;;;5062075;28;20021;-75
2022/10/07 15:18:51;;;;;;;7.80;2.08;;;;;;;;;;5061999;28;20367;-75
2022/10/07 15:21:16;;;;;;;6.70;2.20;;;;;;;;;;5060350;28;20025;-75
2022/10/07 15:23:43;;;;;;;9.02;1.88;;;;;;;;;;5061449;28;20197;-76